sensor_id;sensor_type;location;lat;lon;timestamp;P1;durP1;ratioP1;P2;durP2;ratioP2
41677;SDS011;27364;49.026;8.712;2023-02-08T00:00:15;31.85;;;16.60;;
41677;SDS011;27364;49.026;8.712;2023-02-08T00:02:41;25.65;;;16.77;;
41677;SDS011;27364;49.026;8.712;2023-02-08T00:05:07;24.70;;;14.98;;
41677;SDS011;27364;49.026;8.712;2023-02-08T00:07:32;24.38;;;15.63;;
41677;SDS011;27364;49.026;8.712;2023-02-08T00:09:58;25.70;;;14.65;;
41677;SDS011;27364;49.026;8.712;2023-02-08T00:12:23;26.92;;;15.88;;
41677;SDS011;27364;49.026;8.712;2023-02-08T00:14:49;24.17;;;14.73;;
41677;SDS011;27364;49.026;8.712;2023-02-08T00:17:15;22.90;;;12.43;;
41677;SDS011;27364;49.026;8.712;2023-02-08T00:19:40;22.85;;;13.60;;
41677;SDS011;27364;49.026;8.712;2023-02-08T00:22:06;21.63;;;14.05;;
41677;SDS011;27364;49.026;8.712;2023-02-08T00:24:31;21.05;;;11.95;;
41677;SDS011;27364;49.026;8.712;2023-02-08T00:26:57;22.92;;;13.63;;
41677;SDS011;27364;49.026;8.712;2023-02-08T00:29:22;21.45;;;12.45;;
41677;SDS011;27364;49.026;8.712;2023-02-08T00:31:49;19.40;;;12.40;;
41677;SDS011;27364;49.026;8.712;2023-02-08T00:34:14;20.48;;;11.70;;
41677;SDS011;27364;49.026;8.712;2023-02-08T00:36:40;22.15;;;12.35;;
41677;SDS011;27364;49.026;8.712;2023-02-08T00:39:05;21.98;;;11.00;;
41677;SDS011;27364;49.026;8.712;2023-02-08T00:41:34;17.95;;;11.13;;
41677;SDS011;27364;49.026;8.712;2023-02-08T00:43:59;23.10;;;11.05;;
41677;SDS011;27364;49.026;8.712;2023-02-08T00:46:25;19.83;;;11.80;;
41677;SDS011;27364;49.026;8.712;2023-02-08T00:48:50;20.45;;;12.10;;
41677;SDS011;27364;49.026;8.712;2023-02-08T00:51:16;18.77;;;11.55;;
41677;SDS011;27364;49.026;8.712;2023-02-08T00:53:42;19.70;;;11.52;;
41677;SDS011;27364;49.026;8.712;2023-02-08T00:56:10;18.08;;;10.65;;
41677;SDS011;27364;49.026;8.712;2023-02-08T00:58:37;20.77;;;11.90;;
41677;SDS011;27364;49.026;8.712;2023-02-08T01:01:03;17.92;;;10.65;;
41677;SDS011;27364;49.026;8.712;2023-02-08T01:03:29;16.13;;;9.80;;
41677;SDS011;27364;49.026;8.712;2023-02-08T01:06:02;22.45;;;11.73;;
41677;SDS011;27364;49.026;8.712;2023-02-08T01:08:29;20.10;;;11.18;;
41677;SDS011;27364;49.026;8.712;2023-02-08T01:11:02;18.88;;;11.43;;
41677;SDS011;27364;49.026;8.712;2023-02-08T01:13:28;18.23;;;10.88;;
41677;SDS011;27364;49.026;8.712;2023-02-08T01:15:53;21.77;;;11.38;;
41677;SDS011;27364;49.026;8.712;2023-02-08T01:18:19;19.75;;;11.38;;
41677;SDS011;27364;49.026;8.712;2023-02-08T01:20:44;20.55;;;11.73;;
41677;SDS011;27364;49.026;8.712;2023-02-08T01:23:10;20.85;;;11.10;;
41677;SDS011;27364;49.026;8.712;2023-02-08T01:25:35;19.48;;;11.02;;
41677;SDS011;27364;49.026;8.712;2023-02-08T01:28:01;21.08;;;11.10;;
41677;SDS011;27364;49.026;8.712;2023-02-08T01:30:26;20.40;;;11.13;;
41677;SDS011;27364;49.026;8.712;2023-02-08T01:32:52;18.50;;;11.73;;
41677;SDS011;27364;49.026;8.712;2023-02-08T01:35:17;19.45;;;11.13;;
41677;SDS011;27364;49.026;8.712;2023-02-08T01:37:43;20.00;;;11.70;;
41677;SDS011;27364;49.026;8.712;2023-02-08T01:40:08;22.60;;;11.93;;
41677;SDS011;27364;49.026;8.712;2023-02-08T01:42:34;18.73;;;11.75;;
41677;SDS011;27364;49.026;8.712;2023-02-08T01:47:45;23.73;;;12.07;;
41677;SDS011;27364;49.026;8.712;2023-02-08T01:50:14;23.65;;;12.88;;
41677;SDS011;27364;49.026;8.712;2023-02-08T01:52:43;25.33;;;13.77;;
41677;SDS011;27364;49.026;8.712;2023-02-08T01:55:23;24.17;;;13.15;;
41677;SDS011;27364;49.026;8.712;2023-02-08T01:57:54;25.08;;;12.90;;
41677;SDS011;27364;49.026;8.712;2023-02-08T02:00:24;23.40;;;13.13;;
41677;SDS011;27364;49.026;8.712;2023-02-08T02:02:51;27.20;;;14.55;;
41677;SDS011;27364;49.026;8.712;2023-02-08T02:05:18;24.27;;;13.75;;
41677;SDS011;27364;49.026;8.712;2023-02-08T02:07:46;23.47;;;13.73;;
41677;SDS011;27364;49.026;8.712;2023-02-08T02:10:15;20.88;;;12.80;;
41677;SDS011;27364;49.026;8.712;2023-02-08T02:12:45;25.85;;;13.32;;
41677;SDS011;27364;49.026;8.712;2023-02-08T02:15:12;25.42;;;13.10;;
41677;SDS011;27364;49.026;8.712;2023-02-08T02:17:37;21.85;;;12.00;;
41677;SDS011;27364;49.026;8.712;2023-02-08T02:20:22;22.20;;;12.85;;
41677;SDS011;27364;49.026;8.712;2023-02-08T02:42:11;20.35;;;11.65;;
41677;SDS011;27364;49.026;8.712;2023-02-08T02:45:15;20.75;;;11.05;;
41677;SDS011;27364;49.026;8.712;2023-02-08T02:48:01;21.38;;;11.25;;
41677;SDS011;27364;49.026;8.712;2023-02-08T02:50:36;18.98;;;11.40;;
41677;SDS011;27364;49.026;8.712;2023-02-08T02:53:19;26.75;;;13.13;;
41677;SDS011;27364;49.026;8.712;2023-02-08T02:55:48;20.95;;;11.07;;
41677;SDS011;27364;49.026;8.712;2023-02-08T02:58:21;23.38;;;11.30;;
41677;SDS011;27364;49.026;8.712;2023-02-08T03:00:54;21.30;;;11.80;;
41677;SDS011;27364;49.026;8.712;2023-02-08T03:03:22;22.83;;;12.65;;
41677;SDS011;27364;49.026;8.712;2023-02-08T03:05:49;19.98;;;12.05;;
41677;SDS011;27364;49.026;8.712;2023-02-08T03:10:52;22.67;;;12.60;;
41677;SDS011;27364;49.026;8.712;2023-02-08T03:16:44;25.02;;;13.02;;
41677;SDS011;27364;49.026;8.712;2023-02-08T03:19:30;21.65;;;12.10;;
41677;SDS011;27364;49.026;8.712;2023-02-08T03:24:54;24.38;;;12.63;;
41677;SDS011;27364;49.026;8.712;2023-02-08T03:30:15;20.13;;;11.65;;
41677;SDS011;27364;49.026;8.712;2023-02-08T03:32:50;19.13;;;11.30;;
41677;SDS011;27364;49.026;8.712;2023-02-08T03:35:48;21.88;;;12.52;;
41677;SDS011;27364;49.026;8.712;2023-02-08T03:38:22;19.00;;;11.10;;
41677;SDS011;27364;49.026;8.712;2023-02-08T03:40:52;21.50;;;12.82;;
41677;SDS011;27364;49.026;8.712;2023-02-08T03:44:04;19.67;;;12.15;;
41677;SDS011;27364;49.026;8.712;2023-02-08T03:46:13;21.17;;;13.25;;
41677;SDS011;27364;49.026;8.712;2023-02-08T03:48:58;21.73;;;12.05;;
41677;SDS011;27364;49.026;8.712;2023-02-08T03:51:28;21.55;;;13.85;;
41677;SDS011;27364;49.026;8.712;2023-02-08T03:53:55;24.73;;;13.90;;
41677;SDS011;27364;49.026;8.712;2023-02-08T03:56:30;20.42;;;12.80;;
41677;SDS011;27364;49.026;8.712;2023-02-08T03:59:03;22.73;;;13.60;;
41677;SDS011;27364;49.026;8.712;2023-02-08T04:02:16;25.17;;;13.57;;
41677;SDS011;27364;49.026;8.712;2023-02-08T04:04:24;23.63;;;14.10;;
41677;SDS011;27364;49.026;8.712;2023-02-08T04:06:53;26.80;;;12.63;;
41677;SDS011;27364;49.026;8.712;2023-02-08T04:09:19;21.35;;;12.98;;
41677;SDS011;27364;49.026;8.712;2023-02-08T04:11:45;23.88;;;13.13;;
41677;SDS011;27364;49.026;8.712;2023-02-08T04:14:10;25.63;;;12.82;;
41677;SDS011;27364;49.026;8.712;2023-02-08T04:16:36;19.58;;;12.20;;
41677;SDS011;27364;49.026;8.712;2023-02-08T04:19:01;23.23;;;14.75;;
41677;SDS011;27364;49.026;8.712;2023-02-08T04:21:27;20.65;;;13.45;;
41677;SDS011;27364;49.026;8.712;2023-02-08T04:23:52;21.75;;;13.27;;
41677;SDS011;27364;49.026;8.712;2023-02-08T04:26:18;22.45;;;12.07;;
41677;SDS011;27364;49.026;8.712;2023-02-08T04:28:43;23.73;;;12.48;;
41677;SDS011;27364;49.026;8.712;2023-02-08T04:31:09;23.02;;;12.27;;
41677;SDS011;27364;49.026;8.712;2023-02-08T04:33:34;19.42;;;11.63;;
41677;SDS011;27364;49.026;8.712;2023-02-08T04:36:00;21.40;;;12.15;;
41677;SDS011;27364;49.026;8.712;2023-02-08T04:38:25;20.73;;;13.32;;
41677;SDS011;27364;49.026;8.712;2023-02-08T04:40:51;21.85;;;14.10;;
41677;SDS011;27364;49.026;8.712;2023-02-08T04:43:16;22.67;;;13.85;;
41677;SDS011;27364;49.026;8.712;2023-02-08T04:45:42;22.63;;;13.65;;
41677;SDS011;27364;49.026;8.712;2023-02-08T04:48:07;22.45;;;12.80;;
41677;SDS011;27364;49.026;8.712;2023-02-08T04:50:33;21.60;;;13.32;;
41677;SDS011;27364;49.026;8.712;2023-02-08T04:52:58;20.58;;;13.00;;
41677;SDS011;27364;49.026;8.712;2023-02-08T04:55:24;26.02;;;13.55;;
41677;SDS011;27364;49.026;8.712;2023-02-08T04:57:50;21.55;;;12.20;;
41677;SDS011;27364;49.026;8.712;2023-02-08T05:00:15;20.80;;;12.52;;
41677;SDS011;27364;49.026;8.712;2023-02-08T05:02:41;20.85;;;11.98;;
41677;SDS011;27364;49.026;8.712;2023-02-08T05:05:07;20.58;;;11.07;;
41677;SDS011;27364;49.026;8.712;2023-02-08T05:07:32;18.33;;;11.25;;
41677;SDS011;27364;49.026;8.712;2023-02-08T05:09:58;22.50;;;12.55;;
41677;SDS011;27364;49.026;8.712;2023-02-08T05:12:23;20.30;;;11.80;;
41677;SDS011;27364;49.026;8.712;2023-02-08T05:14:49;22.55;;;12.50;;
41677;SDS011;27364;49.026;8.712;2023-02-08T05:17:15;19.20;;;11.13;;
41677;SDS011;27364;49.026;8.712;2023-02-08T05:19:40;20.88;;;12.70;;
41677;SDS011;27364;49.026;8.712;2023-02-08T05:22:06;18.30;;;11.45;;
41677;SDS011;27364;49.026;8.712;2023-02-08T05:24:31;22.42;;;12.82;;
41677;SDS011;27364;49.026;8.712;2023-02-08T05:26:57;22.45;;;12.23;;
41677;SDS011;27364;49.026;8.712;2023-02-08T05:29:22;26.23;;;13.00;;
41677;SDS011;27364;49.026;8.712;2023-02-08T05:31:48;22.15;;;11.85;;
41677;SDS011;27364;49.026;8.712;2023-02-08T05:34:13;19.52;;;10.38;;
41677;SDS011;27364;49.026;8.712;2023-02-08T05:36:39;23.73;;;13.48;;
41677;SDS011;27364;49.026;8.712;2023-02-08T05:39:04;21.55;;;11.82;;
41677;SDS011;27364;49.026;8.712;2023-02-08T05:41:30;20.75;;;12.48;;
41677;SDS011;27364;49.026;8.712;2023-02-08T05:43:56;25.02;;;12.13;;
41677;SDS011;27364;49.026;8.712;2023-02-08T05:46:21;21.45;;;11.55;;
41677;SDS011;27364;49.026;8.712;2023-02-08T05:48:47;19.52;;;11.48;;
41677;SDS011;27364;49.026;8.712;2023-02-08T05:51:12;22.58;;;12.55;;
41677;SDS011;27364;49.026;8.712;2023-02-08T05:53:38;18.75;;;11.23;;
41677;SDS011;27364;49.026;8.712;2023-02-08T05:56:04;20.15;;;11.38;;
41677;SDS011;27364;49.026;8.712;2023-02-08T05:58:29;22.17;;;11.80;;
41677;SDS011;27364;49.026;8.712;2023-02-08T06:00:55;21.60;;;13.25;;
41677;SDS011;27364;49.026;8.712;2023-02-08T06:03:21;26.23;;;13.60;;
41677;SDS011;27364;49.026;8.712;2023-02-08T06:05:47;25.17;;;13.65;;
41677;SDS011;27364;49.026;8.712;2023-02-08T06:08:12;22.95;;;12.68;;
41677;SDS011;27364;49.026;8.712;2023-02-08T06:10:38;24.10;;;13.48;;
41677;SDS011;27364;49.026;8.712;2023-02-08T06:13:03;25.58;;;13.30;;
41677;SDS011;27364;49.026;8.712;2023-02-08T06:15:29;27.42;;;14.07;;
41677;SDS011;27364;49.026;8.712;2023-02-08T06:17:55;25.70;;;14.00;;
41677;SDS011;27364;49.026;8.712;2023-02-08T06:20:20;24.25;;;13.90;;
41677;SDS011;27364;49.026;8.712;2023-02-08T06:22:46;23.42;;;12.82;;
41677;SDS011;27364;49.026;8.712;2023-02-08T06:25:12;26.35;;;13.85;;
41677;SDS011;27364;49.026;8.712;2023-02-08T06:27:37;23.42;;;12.93;;
41677;SDS011;27364;49.026;8.712;2023-02-08T06:30:03;23.85;;;12.82;;
41677;SDS011;27364;49.026;8.712;2023-02-08T06:32:29;26.42;;;13.82;;
41677;SDS011;27364;49.026;8.712;2023-02-08T06:34:54;30.48;;;15.18;;
41677;SDS011;27364;49.026;8.712;2023-02-08T06:37:21;29.50;;;14.98;;
41677;SDS011;27364;49.026;8.712;2023-02-08T06:39:46;28.17;;;14.20;;
41677;SDS011;27364;49.026;8.712;2023-02-08T06:42:12;27.70;;;14.15;;
41677;SDS011;27364;49.026;8.712;2023-02-08T06:44:37;28.05;;;14.63;;
41677;SDS011;27364;49.026;8.712;2023-02-08T06:47:03;29.75;;;15.30;;
41677;SDS011;27364;49.026;8.712;2023-02-08T06:49:29;30.38;;;12.88;;
41677;SDS011;27364;49.026;8.712;2023-02-08T06:51:54;24.15;;;13.57;;
41677;SDS011;27364;49.026;8.712;2023-02-08T06:54:20;26.60;;;13.10;;
41677;SDS011;27364;49.026;8.712;2023-02-08T06:56:45;22.55;;;12.73;;
41677;SDS011;27364;49.026;8.712;2023-02-08T06:59:11;24.85;;;14.23;;
41677;SDS011;27364;49.026;8.712;2023-02-08T07:01:37;24.38;;;11.85;;
41677;SDS011;27364;49.026;8.712;2023-02-08T07:04:02;24.08;;;12.93;;
41677;SDS011;27364;49.026;8.712;2023-02-08T07:06:28;23.80;;;13.85;;
41677;SDS011;27364;49.026;8.712;2023-02-08T07:08:53;25.67;;;14.57;;
41677;SDS011;27364;49.026;8.712;2023-02-08T07:11:19;23.42;;;13.93;;
41677;SDS011;27364;49.026;8.712;2023-02-08T07:13:46;26.33;;;13.60;;
41677;SDS011;27364;49.026;8.712;2023-02-08T07:16:12;25.95;;;12.85;;
41677;SDS011;27364;49.026;8.712;2023-02-08T07:18:38;25.77;;;14.13;;
41677;SDS011;27364;49.026;8.712;2023-02-08T07:21:04;26.42;;;14.75;;
41677;SDS011;27364;49.026;8.712;2023-02-08T07:23:29;28.65;;;13.50;;
41677;SDS011;27364;49.026;8.712;2023-02-08T07:25:59;29.25;;;14.50;;
41677;SDS011;27364;49.026;8.712;2023-02-08T07:28:26;28.67;;;14.95;;
41677;SDS011;27364;49.026;8.712;2023-02-08T07:30:52;25.13;;;13.90;;
41677;SDS011;27364;49.026;8.712;2023-02-08T07:33:17;27.45;;;13.98;;
41677;SDS011;27364;49.026;8.712;2023-02-08T07:35:43;32.63;;;16.65;;
41677;SDS011;27364;49.026;8.712;2023-02-08T07:38:09;33.55;;;18.38;;
41677;SDS011;27364;49.026;8.712;2023-02-08T07:40:34;31.27;;;14.77;;
41677;SDS011;27364;49.026;8.712;2023-02-08T07:43:00;30.25;;;15.90;;
41677;SDS011;27364;49.026;8.712;2023-02-08T07:45:25;30.17;;;18.38;;
41677;SDS011;27364;49.026;8.712;2023-02-08T07:47:51;32.80;;;19.75;;
41677;SDS011;27364;49.026;8.712;2023-02-08T07:50:16;32.67;;;18.65;;
41677;SDS011;27364;49.026;8.712;2023-02-08T07:52:42;34.35;;;19.85;;
41677;SDS011;27364;49.026;8.712;2023-02-08T07:55:10;40.00;;;22.52;;
41677;SDS011;27364;49.026;8.712;2023-02-08T07:57:40;31.58;;;17.77;;
41677;SDS011;27364;49.026;8.712;2023-02-08T08:00:07;31.02;;;17.05;;
41677;SDS011;27364;49.026;8.712;2023-02-08T08:02:33;34.85;;;18.33;;
41677;SDS011;27364;49.026;8.712;2023-02-08T08:04:59;35.22;;;21.00;;
41677;SDS011;27364;49.026;8.712;2023-02-08T08:07:24;33.28;;;19.15;;
41677;SDS011;27364;49.026;8.712;2023-02-08T08:09:49;31.13;;;17.58;;
41677;SDS011;27364;49.026;8.712;2023-02-08T08:12:15;28.67;;;17.08;;
41677;SDS011;27364;49.026;8.712;2023-02-08T08:14:40;29.17;;;18.27;;
41677;SDS011;27364;49.026;8.712;2023-02-08T08:17:06;33.20;;;20.13;;
41677;SDS011;27364;49.026;8.712;2023-02-08T08:19:31;29.33;;;17.30;;
41677;SDS011;27364;49.026;8.712;2023-02-08T08:21:57;36.95;;;19.17;;
41677;SDS011;27364;49.026;8.712;2023-02-08T08:24:22;30.63;;;17.13;;
41677;SDS011;27364;49.026;8.712;2023-02-08T08:26:48;29.85;;;19.35;;
41677;SDS011;27364;49.026;8.712;2023-02-08T08:29:13;32.28;;;19.98;;
41677;SDS011;27364;49.026;8.712;2023-02-08T08:31:41;33.38;;;19.58;;
41677;SDS011;27364;49.026;8.712;2023-02-08T08:34:07;28.23;;;18.25;;
41677;SDS011;27364;49.026;8.712;2023-02-08T08:36:32;32.50;;;18.75;;
41677;SDS011;27364;49.026;8.712;2023-02-08T08:38:58;26.83;;;18.60;;
41677;SDS011;27364;49.026;8.712;2023-02-08T08:41:23;29.83;;;17.63;;
41677;SDS011;27364;49.026;8.712;2023-02-08T08:43:51;30.38;;;18.13;;
41677;SDS011;27364;49.026;8.712;2023-02-08T08:46:17;29.13;;;17.58;;
41677;SDS011;27364;49.026;8.712;2023-02-08T08:48:43;28.98;;;17.30;;
41677;SDS011;27364;49.026;8.712;2023-02-08T08:51:10;26.75;;;16.52;;
41677;SDS011;27364;49.026;8.712;2023-02-08T08:53:36;26.55;;;16.67;;
41677;SDS011;27364;49.026;8.712;2023-02-08T08:56:02;25.42;;;16.08;;
41677;SDS011;27364;49.026;8.712;2023-02-08T08:58:28;23.15;;;14.90;;
41677;SDS011;27364;49.026;8.712;2023-02-08T09:00:58;25.27;;;15.93;;
41677;SDS011;27364;49.026;8.712;2023-02-08T09:03:24;24.20;;;16.63;;
41677;SDS011;27364;49.026;8.712;2023-02-08T09:05:50;25.23;;;15.63;;
41677;SDS011;27364;49.026;8.712;2023-02-08T09:08:16;27.65;;;15.90;;
41677;SDS011;27364;49.026;8.712;2023-02-08T09:10:41;26.35;;;16.58;;
41677;SDS011;27364;49.026;8.712;2023-02-08T09:13:07;26.60;;;16.67;;
41677;SDS011;27364;49.026;8.712;2023-02-08T09:15:32;23.48;;;15.63;;
41677;SDS011;27364;49.026;8.712;2023-02-08T09:17:58;25.02;;;15.02;;
41677;SDS011;27364;49.026;8.712;2023-02-08T09:20:23;23.50;;;15.27;;
41677;SDS011;27364;49.026;8.712;2023-02-08T09:22:49;29.85;;;16.50;;
41677;SDS011;27364;49.026;8.712;2023-02-08T09:25:15;23.92;;;15.40;;
41677;SDS011;27364;49.026;8.712;2023-02-08T09:27:40;23.48;;;16.15;;
41677;SDS011;27364;49.026;8.712;2023-02-08T09:30:06;22.45;;;15.98;;
41677;SDS011;27364;49.026;8.712;2023-02-08T09:32:34;27.55;;;17.67;;
41677;SDS011;27364;49.026;8.712;2023-02-08T09:35:00;21.80;;;14.07;;
41677;SDS011;27364;49.026;8.712;2023-02-08T09:37:29;24.73;;;13.65;;
41677;SDS011;27364;49.026;8.712;2023-02-08T09:39:55;20.70;;;13.18;;
41677;SDS011;27364;49.026;8.712;2023-02-08T09:42:27;21.65;;;12.88;;
41677;SDS011;27364;49.026;8.712;2023-02-08T09:47:36;20.65;;;13.23;;
41677;SDS011;27364;49.026;8.712;2023-02-08T09:50:11;20.98;;;13.88;;
41677;SDS011;27364;49.026;8.712;2023-02-08T09:52:48;22.55;;;13.85;;
41677;SDS011;27364;49.026;8.712;2023-02-08T09:58:15;19.75;;;13.60;;
41677;SDS011;27364;49.026;8.712;2023-02-08T10:00:42;20.25;;;13.25;;
41677;SDS011;27364;49.026;8.712;2023-02-08T10:03:18;21.02;;;13.80;;
41677;SDS011;27364;49.026;8.712;2023-02-08T10:06:02;20.30;;;13.40;;
41677;SDS011;27364;49.026;8.712;2023-02-08T10:08:38;20.15;;;13.05;;
41677;SDS011;27364;49.026;8.712;2023-02-08T10:14:14;21.67;;;14.32;;
41677;SDS011;27364;49.026;8.712;2023-02-08T10:17:17;18.70;;;12.73;;
41677;SDS011;27364;49.026;8.712;2023-02-08T10:25:33;21.27;;;13.80;;
41677;SDS011;27364;49.026;8.712;2023-02-08T10:28:29;18.67;;;13.40;;
41677;SDS011;27364;49.026;8.712;2023-02-08T10:36:59;20.38;;;13.68;;
41677;SDS011;27364;49.026;8.712;2023-02-08T10:39:29;19.85;;;13.40;;
41677;SDS011;27364;49.026;8.712;2023-02-08T10:41:59;22.20;;;15.35;;
41677;SDS011;27364;49.026;8.712;2023-02-08T10:49:52;19.83;;;13.77;;
41677;SDS011;27364;49.026;8.712;2023-02-08T10:52:26;17.98;;;12.77;;
41677;SDS011;27364;49.026;8.712;2023-02-08T10:54:55;20.95;;;13.18;;
41677;SDS011;27364;49.026;8.712;2023-02-08T10:57:23;16.90;;;12.73;;
41677;SDS011;27364;49.026;8.712;2023-02-08T11:02:27;17.52;;;13.13;;
41677;SDS011;27364;49.026;8.712;2023-02-08T11:05:09;18.77;;;13.30;;
41677;SDS011;27364;49.026;8.712;2023-02-08T11:07:36;17.17;;;13.10;;
41677;SDS011;27364;49.026;8.712;2023-02-08T11:12:56;17.35;;;12.68;;
41677;SDS011;27364;49.026;8.712;2023-02-08T11:15:25;15.50;;;12.35;;
41677;SDS011;27364;49.026;8.712;2023-02-08T11:17:56;18.13;;;13.18;;
41677;SDS011;27364;49.026;8.712;2023-02-08T11:20:46;16.38;;;12.70;;
41677;SDS011;27364;49.026;8.712;2023-02-08T11:29:04;16.73;;;12.20;;
41677;SDS011;27364;49.026;8.712;2023-02-08T11:31:39;19.85;;;13.45;;
41677;SDS011;27364;49.026;8.712;2023-02-08T11:34:38;17.30;;;12.27;;
41677;SDS011;27364;49.026;8.712;2023-02-08T11:37:37;16.08;;;12.15;;
41677;SDS011;27364;49.026;8.712;2023-02-08T11:39:59;14.60;;;11.52;;
41677;SDS011;27364;49.026;8.712;2023-02-08T11:42:26;15.23;;;11.70;;
41677;SDS011;27364;49.026;8.712;2023-02-08T11:45:00;17.15;;;11.52;;
41677;SDS011;27364;49.026;8.712;2023-02-08T11:47:28;15.90;;;11.38;;
41677;SDS011;27364;49.026;8.712;2023-02-08T11:50:05;15.75;;;11.40;;
41677;SDS011;27364;49.026;8.712;2023-02-08T11:52:37;17.55;;;11.70;;
41677;SDS011;27364;49.026;8.712;2023-02-08T11:55:21;20.08;;;12.98;;
41677;SDS011;27364;49.026;8.712;2023-02-08T11:58:08;19.58;;;13.88;;
41677;SDS011;27364;49.026;8.712;2023-02-08T12:00:56;18.05;;;14.18;;
41677;SDS011;27364;49.026;8.712;2023-02-08T12:03:27;19.65;;;13.10;;
41677;SDS011;27364;49.026;8.712;2023-02-08T12:14:32;19.52;;;14.13;;
41677;SDS011;27364;49.026;8.712;2023-02-08T12:20:12;15.95;;;12.63;;
41677;SDS011;27364;49.026;8.712;2023-02-08T12:25:38;18.55;;;13.18;;
41677;SDS011;27364;49.026;8.712;2023-02-08T12:30:56;16.15;;;13.15;;
41677;SDS011;27364;49.026;8.712;2023-02-08T12:36:27;14.60;;;11.25;;
41677;SDS011;27364;49.026;8.712;2023-02-08T12:44:42;12.55;;;9.93;;
41677;SDS011;27364;49.026;8.712;2023-02-08T12:47:33;13.32;;;10.23;;
41677;SDS011;27364;49.026;8.712;2023-02-08T12:50:14;11.77;;;9.10;;
41677;SDS011;27364;49.026;8.712;2023-02-08T12:52:55;13.52;;;10.52;;
41677;SDS011;27364;49.026;8.712;2023-02-08T12:55:30;12.82;;;9.95;;
41677;SDS011;27364;49.026;8.712;2023-02-08T12:58:17;13.23;;;9.90;;
41677;SDS011;27364;49.026;8.712;2023-02-08T13:00:45;10.98;;;8.77;;
41677;SDS011;27364;49.026;8.712;2023-02-08T13:05:55;13.52;;;9.85;;
41677;SDS011;27364;49.026;8.712;2023-02-08T13:08:32;12.85;;;10.07;;
41677;SDS011;27364;49.026;8.712;2023-02-08T13:17:08;13.45;;;9.52;;
41677;SDS011;27364;49.026;8.712;2023-02-08T13:22:37;14.05;;;10.40;;
41677;SDS011;27364;49.026;8.712;2023-02-08T13:25:17;16.33;;;10.25;;
41677;SDS011;27364;49.026;8.712;2023-02-08T13:28:00;15.00;;;11.18;;
41677;SDS011;27364;49.026;8.712;2023-02-08T13:30:28;15.05;;;10.63;;
41677;SDS011;27364;49.026;8.712;2023-02-08T13:32:57;15.43;;;11.15;;
41677;SDS011;27364;49.026;8.712;2023-02-08T13:35:31;12.20;;;10.00;;
41677;SDS011;27364;49.026;8.712;2023-02-08T13:40:27;12.32;;;9.93;;
41677;SDS011;27364;49.026;8.712;2023-02-08T13:45:31;12.27;;;9.57;;
41677;SDS011;27364;49.026;8.712;2023-02-08T13:48:00;14.40;;;10.25;;
41677;SDS011;27364;49.026;8.712;2023-02-08T13:52:59;14.20;;;9.90;;
41677;SDS011;27364;49.026;8.712;2023-02-08T14:03:21;14.15;;;10.20;;
41677;SDS011;27364;49.026;8.712;2023-02-08T14:08:34;13.57;;;10.10;;
41677;SDS011;27364;49.026;8.712;2023-02-08T14:11:41;14.07;;;10.02;;
41677;SDS011;27364;49.026;8.712;2023-02-08T14:14:18;14.57;;;10.60;;
41677;SDS011;27364;49.026;8.712;2023-02-08T14:19:30;15.75;;;11.35;;
41677;SDS011;27364;49.026;8.712;2023-02-08T14:24:36;14.23;;;10.88;;
41677;SDS011;27364;49.026;8.712;2023-02-08T14:32:38;14.38;;;10.77;;
41677;SDS011;27364;49.026;8.712;2023-02-08T14:35:16;14.82;;;10.70;;
41677;SDS011;27364;49.026;8.712;2023-02-08T14:37:44;15.82;;;11.57;;
41677;SDS011;27364;49.026;8.712;2023-02-08T14:42:54;15.15;;;10.40;;
41677;SDS011;27364;49.026;8.712;2023-02-08T14:45:34;14.07;;;10.30;;
41677;SDS011;27364;49.026;8.712;2023-02-08T14:51:01;16.07;;;10.93;;
41677;SDS011;27364;49.026;8.712;2023-02-08T14:58:40;17.10;;;11.13;;
41677;SDS011;27364;49.026;8.712;2023-02-08T15:01:19;16.55;;;10.98;;
41677;SDS011;27364;49.026;8.712;2023-02-08T15:03:53;14.40;;;9.70;;
41677;SDS011;27364;49.026;8.712;2023-02-08T15:09:02;13.80;;;10.10;;
41677;SDS011;27364;49.026;8.712;2023-02-08T15:13:56;13.60;;;9.75;;
41677;SDS011;27364;49.026;8.712;2023-02-08T15:18:55;14.00;;;9.52;;
41677;SDS011;27364;49.026;8.712;2023-02-08T15:21:22;15.27;;;9.45;;
41677;SDS011;27364;49.026;8.712;2023-02-08T15:24:04;11.82;;;9.10;;
41677;SDS011;27364;49.026;8.712;2023-02-08T15:26:50;11.63;;;8.48;;
41677;SDS011;27364;49.026;8.712;2023-02-08T15:29:22;12.60;;;9.23;;
41677;SDS011;27364;49.026;8.712;2023-02-08T15:31:53;11.85;;;8.70;;
41677;SDS011;27364;49.026;8.712;2023-02-08T15:34:20;12.30;;;9.32;;
41677;SDS011;27364;49.026;8.712;2023-02-08T15:36:49;12.23;;;8.98;;
41677;SDS011;27364;49.026;8.712;2023-02-08T15:39:35;13.13;;;8.82;;
41677;SDS011;27364;49.026;8.712;2023-02-08T15:42:14;11.50;;;8.43;;
41677;SDS011;27364;49.026;8.712;2023-02-08T15:44:44;11.40;;;8.02;;
41677;SDS011;27364;49.026;8.712;2023-02-08T15:47:18;12.70;;;7.70;;
41677;SDS011;27364;49.026;8.712;2023-02-08T15:49:51;12.27;;;8.30;;
41677;SDS011;27364;49.026;8.712;2023-02-08T15:52:20;11.20;;;7.95;;
41677;SDS011;27364;49.026;8.712;2023-02-08T15:54:48;11.55;;;7.97;;
41677;SDS011;27364;49.026;8.712;2023-02-08T15:58:02;11.30;;;8.32;;
41677;SDS011;27364;49.026;8.712;2023-02-08T16:00:15;12.63;;;8.57;;
41677;SDS011;27364;49.026;8.712;2023-02-08T16:02:48;11.23;;;7.70;;
41677;SDS011;27364;49.026;8.712;2023-02-08T16:05:18;10.73;;;7.93;;
41677;SDS011;27364;49.026;8.712;2023-02-08T16:07:46;11.18;;;8.02;;
41677;SDS011;27364;49.026;8.712;2023-02-08T16:12:56;12.32;;;8.60;;
41677;SDS011;27364;49.026;8.712;2023-02-08T16:21:28;13.10;;;8.80;;
41677;SDS011;27364;49.026;8.712;2023-02-08T16:29:17;13.48;;;8.63;;
41677;SDS011;27364;49.026;8.712;2023-02-08T16:31:45;14.68;;;8.93;;
41677;SDS011;27364;49.026;8.712;2023-02-08T16:34:16;12.47;;;9.20;;
41677;SDS011;27364;49.026;8.712;2023-02-08T16:36:44;16.38;;;9.85;;
41677;SDS011;27364;49.026;8.712;2023-02-08T16:41:57;14.90;;;9.50;;
41677;SDS011;27364;49.026;8.712;2023-02-08T16:44:28;14.23;;;9.48;;
41677;SDS011;27364;49.026;8.712;2023-02-08T16:46:56;14.32;;;9.52;;
41677;SDS011;27364;49.026;8.712;2023-02-08T16:49:22;12.80;;;9.55;;
41677;SDS011;27364;49.026;8.712;2023-02-08T16:51:48;16.55;;;10.60;;
41677;SDS011;27364;49.026;8.712;2023-02-08T16:54:17;16.00;;;9.82;;
41677;SDS011;27364;49.026;8.712;2023-02-08T16:56:45;13.60;;;9.50;;
41677;SDS011;27364;49.026;8.712;2023-02-08T16:59:14;13.88;;;9.15;;
41677;SDS011;27364;49.026;8.712;2023-02-08T17:01:40;13.85;;;8.93;;
41677;SDS011;27364;49.026;8.712;2023-02-08T17:04:12;14.95;;;9.43;;
41677;SDS011;27364;49.026;8.712;2023-02-08T17:06:39;14.18;;;9.45;;
41677;SDS011;27364;49.026;8.712;2023-02-08T17:09:06;15.35;;;9.90;;
41677;SDS011;27364;49.026;8.712;2023-02-08T17:11:33;13.57;;;9.55;;
41677;SDS011;27364;49.026;8.712;2023-02-08T17:13:59;15.32;;;9.68;;
41677;SDS011;27364;49.026;8.712;2023-02-08T17:16:26;15.38;;;11.20;;
41677;SDS011;27364;49.026;8.712;2023-02-08T17:18:54;19.42;;;11.40;;
41677;SDS011;27364;49.026;8.712;2023-02-08T17:21:20;15.32;;;9.48;;
41677;SDS011;27364;49.026;8.712;2023-02-08T17:23:46;16.15;;;10.60;;
41677;SDS011;27364;49.026;8.712;2023-02-08T17:28:44;17.27;;;11.32;;
41677;SDS011;27364;49.026;8.712;2023-02-08T17:31:10;18.30;;;12.43;;